Time;durP1;ratioP1;P1;durP2;ratioP2;P2;SDS_P1;SDS_P2;PMS_P1;PMS_P2;Temp;Humidity;BMP_temperature;BMP_pressure;BME280_temperature;BME280_humidity;BME280_pressure;Samples;Min_cycle;Max_cycle;Signal;HPM_P1;HPM_P2
2021/05/31 00:00:47;;;;;;;3.97;1.40;;;;;;;;;;5145110;27;20050;-63
2021/05/31 00:03:13;;;;;;;3.03;1.55;;;;;;;;;;5147295;27;20031;-65
2021/05/31 00:05:39;;;;;;;3.88;1.70;;;;;;;;;;5154667;27;20019;-63
2021/05/31 00:08:05;;;;;;;5.32;1.70;;;;;;;;;;5154243;27;20019;-63
2021/05/31 00:10:31;;;;;;;3.40;1.80;;;;;;;;;;5154311;27;20017;-66
2021/05/31 00:12:57;;;;;;;3.55;2.05;;;;;;;;;;5144715;27;20109;-66
2021/05/31 00:15:23;;;;;;;4.75;1.80;;;;;;;;;;5133395;27;20019;-63
2021/05/31 00:17:49;;;;;;;3.83;1.98;;;;;;;;;;5133409;27;20055;-65
2021/05/31 00:20:17;;;;;;;3.85;1.70;;;;;;;;;;5133210;27;20101;-64
2021/05/31 00:22:43;;;;;;;3.47;1.67;;;;;;;;;;5133077;27;20023;-69
2021/05/31 00:25:09;;;;;;;4.85;1.58;;;;;;;;;;5132446;27;20019;-66
2021/05/31 00:27:36;;;;;;;4.47;1.67;;;;;;;;;;5132942;27;20027;-66
2021/05/31 00:30:02;;;;;;;6.07;1.90;;;;;;;;;;5114174;27;20019;-66
2021/05/31 00:32:28;;;;;;;4.13;1.60;;;;;;;;;;5132604;27;20024;-66
2021/05/31 00:34:54;;;;;;;3.53;1.63;;;;;;;;;;5132661;27;20046;-66
2021/05/31 00:37:21;;;;;;;3.83;1.60;;;;;;;;;;5132896;27;20063;-66
2021/05/31 00:39:47;;;;;;;5.38;1.70;;;;;;;;;;5133061;27;20478;-66
2021/05/31 00:42:13;;;;;;;5.88;1.70;;;;;;;;;;5114439;27;20019;-66
2021/05/31 00:44:39;;;;;;;4.82;1.73;;;;;;;;;;5133102;27;20057;-61
2021/05/31 00:47:05;;;;;;;4.30;1.80;;;;;;;;;;5133460;27;20026;-61
2021/05/31 00:49:36;;;;;;;4.70;2.10;;;;;;;;;;5133609;27;20023;-61
2021/05/31 00:52:04;;;;;;;4.68;1.65;;;;;;;;;;5136214;27;20027;-61
2021/05/31 00:54:30;;;;;;;6.82;1.90;;;;;;;;;;5142103;27;20011;-61
2021/05/31 00:56:56;;;;;;;4.90;1.80;;;;;;;;;;5154089;27;20023;-61
2021/05/31 00:59:22;;;;;;;8.02;1.95;;;;;;;;;;5135411;27;20118;-61
2021/05/31 01:01:49;;;;;;;5.10;2.15;;;;;;;;;;5154038;27;20026;-61
2021/05/31 01:04:15;;;;;;;4.75;2.10;;;;;;;;;;5154032;27;20057;-61
2021/05/31 01:06:44;;;;;;;3.47;1.98;;;;;;;;;;5153829;27;20088;-61
2021/05/31 01:09:24;;;;;;;6.63;2.00;;;;;;;;;;5152673;27;20103;-61
2021/05/31 01:11:58;;;;;;;5.72;1.67;;;;;;;;;;5153816;27;20485;-61
2021/05/31 01:14:43;;;;;;;6.55;2.15;;;;;;;;;;5152567;27;20022;-61
2021/05/31 01:17:18;;;;;;;3.72;2.00;;;;;;;;;;5153856;27;20374;-61
2021/05/31 01:19:53;;;;;;;5.55;1.92;;;;;;;;;;5153486;27;20026;-61
2021/05/31 01:22:25;;;;;;;4.65;1.98;;;;;;;;;;5134009;27;20058;-61
2021/05/31 01:24:51;;;;;;;5.72;1.95;;;;;;;;;;5152819;27;20384;-61
2021/05/31 01:27:17;;;;;;;3.42;1.65;;;;;;;;;;5153311;27;20075;-61
2021/05/31 01:29:46;;;;;;;5.03;1.98;;;;;;;;;;5153607;27;20030;-61
2021/05/31 01:32:13;;;;;;;4.47;1.77;;;;;;;;;;5153826;27;20457;-61
2021/05/31 01:34:40;;;;;;;4.32;1.80;;;;;;;;;;5153885;27;20019;-61
2021/05/31 01:37:15;;;;;;;3.47;1.80;;;;;;;;;;5151561;27;20385;-61
2021/05/31 01:39:42;;;;;;;4.18;1.70;;;;;;;;;;5151666;27;20034;-61
2021/05/31 01:42:09;;;;;;;4.18;1.90;;;;;;;;;;5152239;27;20030;-61
2021/05/31 01:44:35;;;;;;;3.38;2.03;;;;;;;;;;5153324;27;20022;-61
2021/05/31 01:47:01;;;;;;;3.83;2.08;;;;;;;;;;5137088;27;20031;-61
2021/05/31 01:49:28;;;;;;;3.72;1.73;;;;;;;;;;5131335;28;20735;-61
2021/05/31 01:51:54;;;;;;;3.88;1.90;;;;;;;;;;5132295;28;20024;-61
2021/05/31 01:54:22;;;;;;;3.60;1.95;;;;;;;;;;5132676;28;20076;-61
2021/05/31 01:56:49;;;;;;;3.75;2.10;;;;;;;;;;5132677;28;20516;-61
2021/05/31 01:59:17;;;;;;;7.65;1.80;;;;;;;;;;5132572;28;20413;-61
2021/05/31 02:01:43;;;;;;;3.83;1.80;;;;;;;;;;5132763;28;20021;-61
2021/05/31 02:04:10;;;;;;;4.20;1.80;;;;;;;;;;5132769;28;20485;-61
2021/05/31 02:06:36;;;;;;;3.80;2.03;;;;;;;;;;5132789;28;20034;-61
2021/05/31 02:09:02;;;;;;;3.60;1.80;;;;;;;;;;5132815;28;20098;-61
2021/05/31 02:11:35;;;;;;;4.88;1.80;;;;;;;;;;5132785;28;20019;-61
2021/05/31 02:14:03;;;;;;;2.83;1.60;;;;;;;;;;5131428;28;20026;-61
2021/05/31 02:16:34;;;;;;;3.55;1.90;;;;;;;;;;5131984;28;20034;-61
2021/05/31 02:19:00;;;;;;;3.45;1.90;;;;;;;;;;5131972;27;20086;-61
2021/05/31 02:21:26;;;;;;;5.40;2.70;;;;;;;;;;5135779;27;20030;-62
2021/05/31 02:23:53;;;;;;;5.78;2.10;;;;;;;;;;5135721;27;20037;-61
2021/05/31 02:26:19;;;;;;;5.60;1.80;;;;;;;;;;5139207;27;20026;-61
2021/05/31 02:28:47;;;;;;;6.80;1.92;;;;;;;;;;5156274;27;20037;-61
2021/05/31 02:31:15;;;;;;;3.85;2.15;;;;;;;;;;5155950;27;20024;-61
2021/05/31 02:33:41;;;;;;;3.35;1.73;;;;;;;;;;5137615;27;20023;-61
2021/05/31 02:36:07;;;;;;;6.70;2.03;;;;;;;;;;5156048;27;20025;-61
2021/05/31 02:38:33;;;;;;;3.20;1.75;;;;;;;;;;5156104;27;20038;-61
2021/05/31 02:40:59;;;;;;;4.20;2.13;;;;;;;;;;5155980;27;20030;-62
2021/05/31 02:43:25;;;;;;;5.40;2.13;;;;;;;;;;5156017;27;20025;-61
2021/05/31 02:45:51;;;;;;;4.22;2.35;;;;;;;;;;5156024;27;20042;-61
2021/05/31 02:48:18;;;;;;;8.15;2.33;;;;;;;;;;5155849;27;20041;-62
2021/05/31 02:50:44;;;;;;;4.18;2.17;;;;;;;;;;5155812;27;20075;-61
2021/05/31 02:53:10;;;;;;;3.05;1.80;;;;;;;;;;5156001;27;20043;-61
2021/05/31 02:55:37;;;;;;;4.63;1.83;;;;;;;;;;5137965;27;20038;-61
2021/05/31 02:58:03;;;;;;;4.30;1.92;;;;;;;;;;5156513;27;20076;-61
2021/05/31 03:00:30;;;;;;;5.10;1.90;;;;;;;;;;5156510;27;20044;-61
2021/05/31 03:02:56;;;;;;;6.32;2.13;;;;;;;;;;5156325;27;20027;-61
2021/05/31 03:05:28;;;;;;;3.80;1.83;;;;;;;;;;5156448;27;20030;-61
2021/05/31 03:07:54;;;;;;;4.55;2.20;;;;;;;;;;5156348;27;20049;-62
2021/05/31 03:10:20;;;;;;;3.95;1.98;;;;;;;;;;5156326;27;20026;-61
2021/05/31 03:12:47;;;;;;;4.57;1.98;;;;;;;;;;5156225;27;20021;-61
2021/05/31 03:15:16;;;;;;;4.10;2.03;;;;;;;;;;5156100;27;20027;-62
2021/05/31 03:17:42;;;;;;;3.92;2.10;;;;;;;;;;5155794;27;20113;-61
2021/05/31 03:20:08;;;;;;;4.22;2.10;;;;;;;;;;5155905;27;20030;-61
2021/05/31 03:22:34;;;;;;;4.68;1.95;;;;;;;;;;5137487;27;20556;-61
2021/05/31 03:25:01;;;;;;;6.22;1.90;;;;;;;;;;5155900;27;20054;-61
2021/05/31 03:27:27;;;;;;;4.28;2.00;;;;;;;;;;5155948;27;20075;-61
2021/05/31 03:29:53;;;;;;;4.25;2.38;;;;;;;;;;5155844;27;20025;-62
2021/05/31 03:32:19;;;;;;;3.30;1.80;;;;;;;;;;5154666;27;20023;-61
2021/05/31 03:34:45;;;;;;;3.65;2.10;;;;;;;;;;5155823;27;20022;-61
2021/05/31 03:37:11;;;;;;;4.32;2.00;;;;;;;;;;5155334;27;20103;-61
2021/05/31 03:39:37;;;;;;;3.60;1.90;;;;;;;;;;5155554;27;20377;-61
2021/05/31 03:42:04;;;;;;;5.05;1.70;;;;;;;;;;5155455;27;20038;-61
2021/05/31 03:44:30;;;;;;;4.50;2.03;;;;;;;;;;5155421;27;20031;-61
2021/05/31 03:46:56;;;;;;;3.35;1.88;;;;;;;;;;5155393;27;20552;-61
2021/05/31 03:49:22;;;;;;;4.03;2.03;;;;;;;;;;5155260;27;20023;-61
2021/05/31 03:51:48;;;;;;;3.20;1.83;;;;;;;;;;5155518;27;20369;-62
2021/05/31 03:54:14;;;;;;;4.07;2.13;;;;;;;;;;5155587;27;20026;-61
2021/05/31 03:56:40;;;;;;;4.53;2.10;;;;;;;;;;5155208;27;20018;-61
2021/05/31 03:59:07;;;;;;;3.45;1.88;;;;;;;;;;5155004;27;20027;-61
2021/05/31 04:01:34;;;;;;;3.38;2.03;;;;;;;;;;5155010;27;20408;-61
2021/05/31 04:04:00;;;;;;;3.22;1.88;;;;;;;;;;5153935;27;20542;-61
2021/05/31 04:11:41;;;;;;;4.75;1.90;;;;;;;;;;5155137;27;20038;-61
2021/05/31 04:14:09;;;;;;;6.13;2.25;;;;;;;;;;5155077;27;20397;-62
2021/05/31 04:16:36;;;;;;;3.50;1.88;;;;;;;;;;5154905;27;20106;-61
2021/05/31 04:19:03;;;;;;;3.92;1.83;;;;;;;;;;5154924;27;20058;-61
2021/05/31 04:21:29;;;;;;;4.00;1.80;;;;;;;;;;5155013;27;20023;-61
2021/05/31 04:23:55;;;;;;;3.45;1.75;;;;;;;;;;5154978;27;20415;-62
2021/05/31 04:26:21;;;;;;;3.15;1.73;;;;;;;;;;5154582;27;20019;-61
2021/05/31 04:28:48;;;;;;;4.53;2.00;;;;;;;;;;5154456;27;20070;-61
2021/05/31 04:31:14;;;;;;;3.60;1.85;;;;;;;;;;5154631;27;20378;-61
2021/05/31 04:33:40;;;;;;;4.20;1.90;;;;;;;;;;5154529;27;20106;-62
2021/05/31 04:36:06;;;;;;;4.00;1.75;;;;;;;;;;5154361;27;20019;-62
2021/05/31 04:38:32;;;;;;;3.72;1.95;;;;;;;;;;5135905;27;20037;-61
2021/05/31 04:40:59;;;;;;;3.30;1.90;;;;;;;;;;5154227;27;20022;-61
2021/05/31 04:43:25;;;;;;;3.83;1.90;;;;;;;;;;5154042;27;20473;-61
2021/05/31 04:45:51;;;;;;;3.05;1.77;;;;;;;;;;5154405;27;20019;-61
2021/05/31 04:48:17;;;;;;;2.72;1.60;;;;;;;;;;5154464;27;20018;-61
2021/05/31 04:50:43;;;;;;;3.58;1.70;;;;;;;;;;5154297;27;20059;-62
2021/05/31 04:53:09;;;;;;;3.38;1.80;;;;;;;;;;5153938;27;20063;-61
2021/05/31 04:55:37;;;;;;;3.05;1.63;;;;;;;;;;5154140;27;20023;-61
2021/05/31 04:58:03;;;;;;;2.58;1.48;;;;;;;;;;5135446;27;20022;-62
2021/05/31 05:00:29;;;;;;;2.67;1.60;;;;;;;;;;5152182;27;20030;-61
2021/05/31 05:02:55;;;;;;;3.67;1.80;;;;;;;;;;5152491;27;20019;-62
2021/05/31 05:05:22;;;;;;;3.60;1.80;;;;;;;;;;5152380;27;20037;-61
2021/05/31 05:07:48;;;;;;;3.88;1.70;;;;;;;;;;5153828;27;20023;-61
2021/05/31 05:10:16;;;;;;;3.65;1.80;;;;;;;;;;5153919;27;20054;-61
2021/05/31 05:12:43;;;;;;;3.97;1.75;;;;;;;;;;5153812;27;20019;-61
2021/05/31 05:15:09;;;;;;;3.88;1.50;;;;;;;;;;5153699;27;20167;-61
2021/05/31 05:17:35;;;;;;;4.75;1.80;;;;;;;;;;5153533;27;20083;-61
2021/05/31 05:20:01;;;;;;;4.05;1.60;;;;;;;;;;5153771;27;20775;-62
2021/05/31 05:22:27;;;;;;;3.53;1.70;;;;;;;;;;5153891;27;20098;-62
2021/05/31 05:24:53;;;;;;;3.30;1.77;;;;;;;;;;5153729;27;20030;-62
2021/05/31 05:27:19;;;;;;;3.58;1.80;;;;;;;;;;5153586;27;20029;-61
2021/05/31 05:29:46;;;;;;;3.28;1.70;;;;;;;;;;5153578;27;20018;-61
2021/05/31 05:32:12;;;;;;;4.43;1.88;;;;;;;;;;5135067;27;20027;-61
2021/05/31 05:34:38;;;;;;;4.45;1.70;;;;;;;;;;5135263;27;20074;-62
2021/05/31 05:37:18;;;;;;;3.28;1.80;;;;;;;;;;5153340;27;20125;-61
2021/05/31 05:49:58;;;;;;;3.42;1.50;;;;;;;;;;5153362;27;20477;-61
2021/05/31 05:52:24;;;;;;;3.72;1.65;;;;;;;;;;5153139;27;20034;-61
2021/05/31 05:54:50;;;;;;;3.25;1.70;;;;;;;;;;5154963;27;20027;-61
2021/05/31 05:57:17;;;;;;;5.13;1.60;;;;;;;;;;5157524;27;20043;-61
2021/05/31 05:59:43;;;;;;;3.72;1.70;;;;;;;;;;5157362;27;20485;-61
2021/05/31 06:02:09;;;;;;;4.22;2.03;;;;;;;;;;5157149;27;20484;-61
2021/05/31 06:04:39;;;;;;;3.42;1.55;;;;;;;;;;5157049;27;20473;-61
2021/05/31 06:07:05;;;;;;;3.10;1.70;;;;;;;;;;5157263;27;20101;-61
2021/05/31 06:09:31;;;;;;;4.00;1.70;;;;;;;;;;5155214;27;20350;-61
2021/05/31 06:11:57;;;;;;;3.47;1.90;;;;;;;;;;5157137;27;20083;-62
2021/05/31 06:14:23;;;;;;;3.45;1.60;;;;;;;;;;5157160;27;20026;-61
2021/05/31 06:16:49;;;;;;;4.88;1.60;;;;;;;;;;5157146;27;20022;-61
2021/05/31 06:19:15;;;;;;;3.63;1.70;;;;;;;;;;5156760;27;20041;-61
2021/05/31 06:21:41;;;;;;;4.28;1.83;;;;;;;;;;5156991;27;20022;-61
2021/05/31 06:24:07;;;;;;;4.00;1.73;;;;;;;;;;5156887;27;20019;-62
2021/05/31 06:26:33;;;;;;;2.70;1.33;;;;;;;;;;5156575;27;20505;-61
2021/05/31 06:29:00;;;;;;;4.35;1.70;;;;;;;;;;5156566;27;20027;-62
2021/05/31 06:31:26;;;;;;;3.75;1.70;;;;;;;;;;5148856;27;20030;-61
2021/05/31 06:33:52;;;;;;;3.25;1.75;;;;;;;;;;5134738;27;20027;-61
2021/05/31 06:36:18;;;;;;;2.67;1.33;;;;;;;;;;5135121;27;20078;-61
2021/05/31 06:38:44;;;;;;;5.78;1.77;;;;;;;;;;5139031;27;20088;-61
2021/05/31 06:41:10;;;;;;;4.18;1.83;;;;;;;;;;5144567;27;20015;-61
2021/05/31 06:43:38;;;;;;;4.00;1.70;;;;;;;;;;5146477;27;20071;-61
2021/05/31 06:46:04;;;;;;;4.90;1.50;;;;;;;;;;5150473;27;20018;-61
2021/05/31 06:48:30;;;;;;;2.80;1.30;;;;;;;;;;5138302;27;20485;-62
2021/05/31 06:50:56;;;;;;;8.00;2.00;;;;;;;;;;5131386;27;20076;-61
2021/05/31 06:53:22;;;;;;;5.75;1.58;;;;;;;;;;5122270;27;20034;-61
2021/05/31 06:55:48;;;;;;;3.20;1.92;;;;;;;;;;5143978;27;20026;-61
2021/05/31 06:58:14;;;;;;;6.80;1.90;;;;;;;;;;5145101;27;20023;-62
2021/05/31 07:00:41;;;;;;;6.50;1.83;;;;;;;;;;5145535;27;20027;-61
2021/05/31 07:03:09;;;;;;;3.55;1.50;;;;;;;;;;5143706;27;20018;-61
2021/05/31 07:05:35;;;;;;;4.72;1.67;;;;;;;;;;5146062;27;20015;-61
2021/05/31 07:08:01;;;;;;;4.68;2.00;;;;;;;;;;5144702;27;20010;-61
2021/05/31 07:10:28;;;;;;;5.35;1.90;;;;;;;;;;5155055;27;20023;-61
2021/05/31 07:12:55;;;;;;;4.68;1.88;;;;;;;;;;5155761;27;20389;-61
2021/05/31 07:15:21;;;;;;;4.88;2.17;;;;;;;;;;5155663;27;20010;-61
2021/05/31 07:17:47;;;;;;;6.28;2.00;;;;;;;;;;5155563;27;20053;-61
2021/05/31 07:20:14;;;;;;;4.45;2.00;;;;;;;;;;5156004;27;20083;-61
2021/05/31 07:22:42;;;;;;;4.75;1.70;;;;;;;;;;5155709;27;20053;-61
2021/05/31 07:25:09;;;;;;;5.20;1.73;;;;;;;;;;5155695;27;20030;-61
2021/05/31 07:27:35;;;;;;;7.18;1.85;;;;;;;;;;5136385;27;20096;-61
2021/05/31 07:30:01;;;;;;;8.60;2.08;;;;;;;;;;5134786;27;20103;-61
2021/05/31 07:32:27;;;;;;;4.78;2.00;;;;;;;;;;5134686;27;20072;-61
2021/05/31 07:34:53;;;;;;;7.43;1.88;;;;;;;;;;5134596;27;20027;-61
2021/05/31 07:37:19;;;;;;;10.50;2.10;;;;;;;;;;5134486;27;20122;-61
2021/05/31 07:39:45;;;;;;;4.78;1.73;;;;;;;;;;5137156;27;20126;-61
2021/05/31 07:42:11;;;;;;;7.95;1.70;;;;;;;;;;5134568;27;20019;-61
2021/05/31 07:44:37;;;;;;;8.02;1.83;;;;;;;;;;5134579;27;20110;-61
2021/05/31 07:47:04;;;;;;;6.88;1.90;;;;;;;;;;5134238;27;20530;-60
2021/05/31 07:49:30;;;;;;;4.95;1.90;;;;;;;;;;5139169;27;20019;-61
2021/05/31 07:51:59;;;;;;;5.32;1.70;;;;;;;;;;5156115;27;20022;-61
2021/05/31 07:54:25;;;;;;;6.15;1.58;;;;;;;;;;5156113;27;20019;-61
2021/05/31 07:56:51;;;;;;;5.40;1.63;;;;;;;;;;5156022;27;20030;-61
2021/05/31 07:59:18;;;;;;;4.60;1.33;;;;;;;;;;5155304;27;20401;-61
2021/05/31 08:01:44;;;;;;;3.42;1.65;;;;;;;;;;5155051;27;20025;-61
2021/05/31 08:04:10;;;;;;;4.93;1.90;;;;;;;;;;5154711;27;20101;-61
2021/05/31 08:06:36;;;;;;;5.40;2.13;;;;;;;;;;5154889;27;20018;-61
2021/05/31 08:09:06;;;;;;;3.42;1.50;;;;;;;;;;5154801;27;20034;-61
2021/05/31 08:11:33;;;;;;;3.72;1.50;;;;;;;;;;5144104;27;20050;-61
2021/05/31 08:13:59;;;;;;;2.88;1.50;;;;;;;;;;5150358;27;20042;-61
2021/05/31 08:16:25;;;;;;;5.35;1.85;;;;;;;;;;5154742;27;20015;-61
2021/05/31 08:18:51;;;;;;;4.03;1.48;;;;;;;;;;5154407;27;20038;-61
2021/05/31 08:21:17;;;;;;;8.25;1.55;;;;;;;;;;5154950;27;20391;-61
2021/05/31 08:23:43;;;;;;;5.53;1.67;;;;;;;;;;5154549;27;20377;-61
2021/05/31 08:26:09;;;;;;;7.35;1.48;;;;;;;;;;5147181;27;20054;-61
2021/05/31 08:28:38;;;;;;;8.45;1.80;;;;;;;;;;5146892;27;20042;-61
2021/05/31 08:31:05;;;;;;;7.90;1.70;;;;;;;;;;5154330;27;20019;-61
2021/05/31 08:33:31;;;;;;;3.72;1.52;;;;;;;;;;5148973;27;20385;-60
2021/05/31 08:35:57;;;;;;;3.88;1.83;;;;;;;;;;5115206;27;20023;-61
2021/05/31 08:38:23;;;;;;;7.22;1.40;;;;;;;;;;5115128;27;20059;-61
2021/05/31 08:40:49;;;;;;;8.05;1.83;;;;;;;;;;5136235;27;20519;-61
2021/05/31 08:43:15;;;;;;;4.65;1.80;;;;;;;;;;5133598;27;20490;-61
2021/05/31 08:45:42;;;;;;;3.60;1.67;;;;;;;;;;5135146;27;20035;-61
2021/05/31 08:48:10;;;;;;;3.50;1.50;;;;;;;;;;5139252;27;20019;-60
2021/05/31 08:50:36;;;;;;;2.80;1.25;;;;;;;;;;5132705;27;20022;-61
2021/05/31 08:53:03;;;;;;;7.40;1.70;;;;;;;;;;5132657;27;20102;-61
2021/05/31 08:55:30;;;;;;;5.18;1.60;;;;;;;;;;5132701;27;20031;-61
2021/05/31 08:57:56;;;;;;;5.55;1.50;;;;;;;;;;5132482;27;20034;-61
2021/05/31 09:00:27;;;;;;;4.25;1.30;;;;;;;;;;5132577;27;20438;-63
2021/05/31 09:02:54;;;;;;;3.92;1.27;;;;;;;;;;5133271;27;20088;-63
2021/05/31 09:05:29;;;;;;;3.85;1.42;;;;;;;;;;5133418;27;20023;-65
2021/05/31 09:07:55;;;;;;;6.78;1.95;;;;;;;;;;5133629;27;20389;-60
2021/05/31 09:10:23;;;;;;;5.32;1.50;;;;;;;;;;5153414;27;20031;-64
2021/05/31 09:12:51;;;;;;;3.70;1.73;;;;;;;;;;5131534;27;20031;-64
2021/05/31 09:15:18;;;;;;;4.00;1.35;;;;;;;;;;5153327;27;20023;-62
2021/05/31 09:17:47;;;;;;;4.40;1.60;;;;;;;;;;5153453;27;20023;-65
2021/05/31 09:20:13;;;;;;;2.80;1.35;;;;;;;;;;5153473;27;20501;-65
2021/05/31 09:22:50;;;;;;;6.28;1.70;;;;;;;;;;5153449;27;20026;-60
2021/05/31 09:25:25;;;;;;;5.63;1.85;;;;;;;;;;5153085;27;20023;-63
2021/05/31 09:27:52;;;;;;;3.05;1.17;;;;;;;;;;5113891;28;20631;-63
2021/05/31 09:30:18;;;;;;;6.13;1.58;;;;;;;;;;5152995;27;20102;-65
2021/05/31 09:32:51;;;;;;;2.92;1.40;;;;;;;;;;5148522;27;20023;-63
2021/05/31 09:35:21;;;;;;;4.60;1.38;;;;;;;;;;5157530;27;20094;-61
2021/05/31 09:37:48;;;;;;;4.38;1.40;;;;;;;;;;5157239;27;20034;-63
2021/05/31 09:40:23;;;;;;;3.38;1.30;;;;;;;;;;5151884;27;20031;-64
2021/05/31 09:42:57;;;;;;;3.42;1.50;;;;;;;;;;5137281;27;20378;-63
2021/05/31 09:45:24;;;;;;;4.35;1.30;;;;;;;;;;5137140;27;20050;-63
2021/05/31 09:47:50;;;;;;;3.78;1.40;;;;;;;;;;5139648;27;20019;-63
2021/05/31 09:50:24;;;;;;;2.40;1.17;;;;;;;;;;5136260;27;20026;-63
2021/05/31 09:53:01;;;;;;;3.13;1.30;;;;;;;;;;5117766;27;20031;-63
2021/05/31 09:55:31;;;;;;;3.70;1.42;;;;;;;;;;5136314;27;20092;-62
2021/05/31 09:57:57;;;;;;;2.97;1.10;;;;;;;;;;5135926;27;20023;-64
2021/05/31 10:00:28;;;;;;;3.35;1.20;;;;;;;;;;5134998;27;20030;-60
2021/05/31 10:03:19;;;;;;;4.65;1.33;;;;;;;;;;5130756;27;20031;-63
2021/05/31 10:10:57;;;;;;;4.28;1.40;;;;;;;;;;5141235;27;20049;-65
2021/05/31 10:13:24;;;;;;;5.68;1.20;;;;;;;;;;5137372;27;20034;-65
2021/05/31 10:15:50;;;;;;;3.58;1.40;;;;;;;;;;5156468;27;20022;-65
2021/05/31 10:18:18;;;;;;;2.75;1.30;;;;;;;;;;5156259;27;20026;-66
2021/05/31 10:20:45;;;;;;;4.63;1.30;;;;;;;;;;5128410;27;20027;-65
2021/05/31 10:23:12;;;;;;;3.67;1.10;;;;;;;;;;5147092;27;20065;-66
2021/05/31 10:25:42;;;;;;;3.53;1.30;;;;;;;;;;5155898;27;20027;-66
2021/05/31 10:28:11;;;;;;;4.75;1.00;;;;;;;;;;5146511;27;20016;-62
2021/05/31 10:30:42;;;;;;;2.65;1.10;;;;;;;;;;5144618;27;20064;-64
2021/05/31 10:33:12;;;;;;;6.60;1.02;;;;;;;;;;5145667;27;20030;-63
2021/05/31 10:35:38;;;;;;;2.40;1.20;;;;;;;;;;5141398;27;20019;-63
2021/05/31 10:38:10;;;;;;;4.28;1.25;;;;;;;;;;5146249;27;20046;-63
2021/05/31 10:40:41;;;;;;;2.90;1.40;;;;;;;;;;5127712;27;20011;-62
2021/05/31 10:43:07;;;;;;;2.08;0.95;;;;;;;;;;5154051;27;20046;-63
2021/05/31 10:45:34;;;;;;;3.70;1.25;;;;;;;;;;5125715;27;20023;-63
2021/05/31 10:48:04;;;;;;;2.55;0.95;;;;;;;;;;5144498;27;20015;-63
2021/05/31 10:50:32;;;;;;;4.82;1.20;;;;;;;;;;5147285;27;20019;-63
2021/05/31 10:52:59;;;;;;;2.28;1.17;;;;;;;;;;5137532;27;20155;-63
2021/05/31 10:55:26;;;;;;;2.78;1.20;;;;;;;;;;5155277;27;20015;-62
2021/05/31 10:57:53;;;;;;;2.60;1.45;;;;;;;;;;5144559;27;20015;-64
2021/05/31 11:00:28;;;;;;;2.70;1.10;;;;;;;;;;5149648;27;20027;-64
2021/05/31 11:03:09;;;;;;;7.07;1.25;;;;;;;;;;5137629;27;20019;-65
2021/05/31 11:05:36;;;;;;;2.97;0.93;;;;;;;;;;5120698;27;20027;-66
2021/05/31 11:08:04;;;;;;;10.55;1.10;;;;;;;;;;5155759;27;20108;-65
2021/05/31 11:10:32;;;;;;;28.27;2.55;;;;;;;;;;5155606;27;20029;-67
2021/05/31 11:13:15;;;;;;;4.60;1.48;;;;;;;;;;5155783;27;20030;-69
2021/05/31 11:15:42;;;;;;;3.60;1.10;;;;;;;;;;5155574;27;20629;-66
2021/05/31 11:18:08;;;;;;;4.28;1.70;;;;;;;;;;5155026;27;20109;-64
2021/05/31 11:20:34;;;;;;;3.97;1.20;;;;;;;;;;5154853;27;20027;-68
2021/05/31 11:23:02;;;;;;;3.90;1.10;;;;;;;;;;5155104;27;20018;-68
2021/05/31 11:25:29;;;;;;;2.65;0.90;;;;;;;;;;5153913;27;20045;-62
2021/05/31 11:27:57;;;;;;;2.40;1.15;;;;;;;;;;5116564;27;20374;-64
2021/05/31 11:30:25;;;;;;;5.25;1.23;;;;;;;;;;5134718;27;20039;-64
2021/05/31 11:32:52;;;;;;;5.30;1.30;;;;;;;;;;5134110;27;20029;-65
2021/05/31 11:35:18;;;;;;;2.63;1.17;;;;;;;;;;5134098;27;20030;-66
2021/05/31 11:37:45;;;;;;;7.72;1.30;;;;;;;;;;5137957;27;20043;-68
2021/05/31 11:40:16;;;;;;;3.38;0.95;;;;;;;;;;5154605;27;20054;-65
2021/05/31 11:42:46;;;;;;;2.17;1.00;;;;;;;;;;5154550;27;20022;-67
2021/05/31 11:45:12;;;;;;;2.53;1.10;;;;;;;;;;5154463;27;20485;-65
2021/05/31 11:47:38;;;;;;;3.05;1.20;;;;;;;;;;5153296;27;20030;-68
2021/05/31 11:50:05;;;;;;;4.28;1.30;;;;;;;;;;5145438;27;20191;-66
2021/05/31 11:52:31;;;;;;;4.10;1.20;;;;;;;;;;5132556;27;20015;-68
2021/05/31 11:54:57;;;;;;;6.05;1.00;;;;;;;;;;5130825;27;20393;-67
2021/05/31 11:57:25;;;;;;;9.10;1.55;;;;;;;;;;5154311;27;20146;-65
2021/05/31 11:59:52;;;;;;;2.65;1.20;;;;;;;;;;5154086;27;20042;-66
2021/05/31 12:02:19;;;;;;;4.82;1.30;;;;;;;;;;5154362;27;20098;-62
2021/05/31 12:04:46;;;;;;;2.83;1.02;;;;;;;;;;5154548;27;20021;-62
2021/05/31 12:07:13;;;;;;;4.55;1.20;;;;;;;;;;5153804;27;20050;-65
2021/05/31 12:09:42;;;;;;;3.08;1.25;;;;;;;;;;5153246;27;20075;-67
2021/05/31 12:12:09;;;;;;;4.13;1.27;;;;;;;;;;5154100;27;20021;-66
2021/05/31 12:14:48;;;;;;;4.53;1.00;;;;;;;;;;5154135;27;20030;-62
2021/05/31 12:17:14;;;;;;;5.25;1.50;;;;;;;;;;5153741;27;20030;-66
2021/05/31 12:19:41;;;;;;;2.30;1.23;;;;;;;;;;5135462;27;20042;-64
2021/05/31 12:22:07;;;;;;;2.58;1.20;;;;;;;;;;5135185;27;20051;-67
2021/05/31 12:24:50;;;;;;;2.15;1.10;;;;;;;;;;5153966;27;20042;-64
2021/05/31 12:27:22;;;;;;;2.33;1.17;;;;;;;;;;5137031;27;20023;-66
2021/05/31 12:29:48;;;;;;;2.75;1.17;;;;;;;;;;5126423;27;20035;-66
2021/05/31 12:32:15;;;;;;;3.72;1.05;;;;;;;;;;5127191;27;20054;-66
2021/05/31 12:34:42;;;;;;;6.13;1.27;;;;;;;;;;5147672;27;20298;-66
2021/05/31 12:37:10;;;;;;;3.08;1.35;;;;;;;;;;5133175;27;20416;-67
2021/05/31 12:39:40;;;;;;;2.30;1.13;;;;;;;;;;5141490;27;20031;-66
2021/05/31 12:42:07;;;;;;;2.45;1.20;;;;;;;;;;5133658;27;20051;-66
2021/05/31 12:44:34;;;;;;;3.95;1.30;;;;;;;;;;5133353;27;20023;-66
2021/05/31 12:47:13;;;;;;;5.15;1.13;;;;;;;;;;5132870;27;20030;-65
2021/05/31 12:49:47;;;;;;;3.45;1.00;;;;;;;;;;5133330;27;20019;-64
2021/05/31 12:52:14;;;;;;;2.92;1.17;;;;;;;;;;5132492;27;20072;-64
2021/05/31 12:54:40;;;;;;;2.78;1.25;;;;;;;;;;5114654;27;20050;-65
2021/05/31 12:57:17;;;;;;;18.70;2.15;;;;;;;;;;5150939;27;20491;-66
2021/05/31 12:59:49;;;;;;;4.13;1.08;;;;;;;;;;5153463;27;20034;-64
2021/05/31 13:02:16;;;;;;;9.43;1.23;;;;;;;;;;5153142;27;20083;-66
2021/05/31 13:04:43;;;;;;;2.10;0.98;;;;;;;;;;5153093;27;20071;-66
2021/05/31 13:07:17;;;;;;;2.03;0.93;;;;;;;;;;5152850;27;20041;-63
2021/05/31 13:09:43;;;;;;;6.50;1.00;;;;;;;;;;5139769;27;20401;-66
2021/05/31 13:12:09;;;;;;;4.10;0.93;;;;;;;;;;5143370;27;20473;-65
2021/05/31 13:14:40;;;;;;;2.25;0.93;;;;;;;;;;5152957;27;20079;-63
2021/05/31 13:17:08;;;;;;;3.25;1.23;;;;;;;;;;5152773;27;20045;-67
2021/05/31 13:19:35;;;;;;;2.80;1.00;;;;;;;;;;5152698;27;20027;-69
2021/05/31 13:22:08;;;;;;;4.45;1.02;;;;;;;;;;5152563;27;20022;-63
2021/05/31 13:24:36;;;;;;;2.70;1.20;;;;;;;;;;5152705;27;20011;-66
2021/05/31 13:27:09;;;;;;;3.42;1.20;;;;;;;;;;5142737;27;20535;-62
2021/05/31 13:29:35;;;;;;;3.78;1.48;;;;;;;;;;5152708;27;20022;-67
2021/05/31 13:32:08;;;;;;;2.75;1.17;;;;;;;;;;5152809;27;20033;-62
2021/05/31 13:34:35;;;;;;;2.40;1.00;;;;;;;;;;5152829;27;20374;-63
2021/05/31 13:37:12;;;;;;;2.85;1.20;;;;;;;;;;5152363;27;20051;-67
2021/05/31 13:39:48;;;;;;;2.05;0.90;;;;;;;;;;5134302;27;20058;-67
2021/05/31 13:42:15;;;;;;;2.42;1.08;;;;;;;;;;5146597;27;20023;-67
2021/05/31 13:44:41;;;;;;;2.55;1.20;;;;;;;;;;5117783;28;20575;-64
2021/05/31 13:47:07;;;;;;;3.17;1.20;;;;;;;;;;5147556;27;20030;-62
2021/05/31 13:49:33;;;;;;;3.45;1.20;;;;;;;;;;5152445;27;20370;-65
2021/05/31 13:51:59;;;;;;;3.35;1.20;;;;;;;;;;5152859;27;20105;-64
2021/05/31 13:54:25;;;;;;;2.40;1.15;;;;;;;;;;5152857;27;20019;-65
2021/05/31 13:56:52;;;;;;;2.72;1.00;;;;;;;;;;5152815;27;20026;-66
2021/05/31 13:59:18;;;;;;;2.10;0.93;;;;;;;;;;5153111;27;20035;-69
2021/05/31 14:01:44;;;;;;;4.60;1.20;;;;;;;;;;5144259;27;20482;-64
2021/05/31 14:04:10;;;;;;;4.63;1.13;;;;;;;;;;5132330;28;20031;-65
2021/05/31 14:06:37;;;;;;;4.60;1.02;;;;;;;;;;5132169;28;20094;-64
2021/05/31 14:09:04;;;;;;;3.00;1.15;;;;;;;;;;5132142;28;20026;-63
2021/05/31 14:11:30;;;;;;;4.00;1.30;;;;;;;;;;5132108;28;20015;-65
2021/05/31 14:13:56;;;;;;;2.03;1.00;;;;;;;;;;5131666;28;20103;-63
2021/05/31 14:16:23;;;;;;;2.78;1.10;;;;;;;;;;5135764;27;20024;-67
2021/05/31 14:18:49;;;;;;;3.05;1.08;;;;;;;;;;5147015;27;20056;-64
2021/05/31 14:21:15;;;;;;;2.95;0.95;;;;;;;;;;5155945;27;20050;-62
2021/05/31 14:23:41;;;;;;;2.40;1.27;;;;;;;;;;5156365;27;20023;-63
2021/05/31 14:26:08;;;;;;;4.15;1.10;;;;;;;;;;5152073;27;20033;-67
2021/05/31 14:28:34;;;;;;;1.73;0.93;;;;;;;;;;5147174;27;20075;-67
2021/05/31 14:31:00;;;;;;;5.25;1.20;;;;;;;;;;5154548;27;20110;-67
2021/05/31 14:33:26;;;;;;;2.42;0.90;;;;;;;;;;5156423;27;20501;-66
2021/05/31 14:35:52;;;;;;;3.53;1.10;;;;;;;;;;5135710;27;20046;-66
2021/05/31 14:38:18;;;;;;;2.05;1.08;;;;;;;;;;5135636;27;20084;-66
2021/05/31 14:40:44;;;;;;;2.35;1.00;;;;;;;;;;5135609;27;20027;-64
2021/05/31 14:43:10;;;;;;;2.15;1.00;;;;;;;;;;5146077;27;20098;-65
2021/05/31 14:45:37;;;;;;;3.90;1.10;;;;;;;;;;5144036;27;20029;-63
2021/05/31 14:48:04;;;;;;;2.42;0.80;;;;;;;;;;5156361;27;20026;-63
2021/05/31 14:50:30;;;;;;;2.38;1.10;;;;;;;;;;5156000;27;20091;-67
2021/05/31 14:52:56;;;;;;;1.60;0.75;;;;;;;;;;5149938;27;20020;-65
2021/05/31 14:55:23;;;;;;;2.67;1.10;;;;;;;;;;5146444;27;20125;-65
2021/05/31 14:57:52;;;;;;;2.03;1.10;;;;;;;;;;5135350;27;20046;-66
2021/05/31 15:00:20;;;;;;;3.10;1.10;;;;;;;;;;5155968;27;20018;-66
2021/05/31 15:02:47;;;;;;;2.30;1.13;;;;;;;;;;5155186;27;20461;-64
2021/05/31 15:05:14;;;;;;;2.80;1.10;;;;;;;;;;5155354;27;20029;-63